Time;durP1;ratioP1;P1;durP2;ratioP2;P2;SDS_P1;SDS_P2;PMS_P1;PMS_P2;Temp;Humidity;BMP_temperature;BMP_pressure;BME280_temperature;BME280_humidity;BME280_pressure;Samples;Min_cycle;Max_cycle;Signal;HPM_P1;HPM_P2
2022/08/27 00:00:47;;;;;;;15.08;11.60;;;;;;;20.05;69.21;100377.97;1830233;77;28274;-80
2022/08/27 00:03:14;;;;;;;15.98;10.70;;;;;;;20.04;69.22;100377.67;1834664;77;25780;-80
2022/08/27 00:05:41;;;;;;;17.02;11.70;;;;;;;20.01;69.29;100375.47;1831272;77;26454;-80
2022/08/27 00:08:11;;;;;;;16.02;12.73;;;;;;;19.97;69.29;100373.78;1829301;77;26214;-80
2022/08/27 00:10:38;;;;;;;12.97;11.37;;;;;;;19.93;69.41;100371.29;1841451;77;25859;-80
2022/08/27 00:13:04;;;;;;;16.30;11.88;;;;;;;19.91;69.52;100366.64;1844787;77;27438;-80
2022/08/27 00:15:31;;;;;;;15.55;11.80;;;;;;;19.88;69.55;100359.54;1828909;77;25754;-81
2022/08/27 00:17:57;;;;;;;14.53;12.13;;;;;;;19.84;69.57;100363.84;1830171;77;25847;-80
2022/08/27 00:20:26;;;;;;;15.75;10.95;;;;;;;19.80;69.64;100356.71;1819488;77;25614;-81
2022/08/27 00:22:52;;;;;;;16.60;12.25;;;;;;;19.78;69.68;100357.50;1827265;77;25459;-81
2022/08/27 00:25:20;;;;;;;14.85;11.97;;;;;;;19.77;69.71;100355.05;1832386;77;28317;-80
2022/08/27 00:27:46;;;;;;;15.05;11.78;;;;;;;19.75;69.78;100350.41;1827026;77;25885;-80
2022/08/27 00:30:17;;;;;;;14.60;11.45;;;;;;;19.74;69.76;100353.66;1843430;77;26208;-80
2022/08/27 00:32:44;;;;;;;15.78;12.20;;;;;;;19.72;69.83;100354.44;1825001;77;30894;-80
2022/08/27 00:35:14;;;;;;;14.73;12.63;;;;;;;19.67;69.90;100351.68;1842802;77;25288;-80
2022/08/27 00:37:42;;;;;;;14.17;11.50;;;;;;;19.64;70.07;100351.34;1829968;77;27493;-80
2022/08/27 00:40:13;;;;;;;14.90;11.90;;;;;;;19.63;70.15;100355.14;1827002;77;25334;-80
2022/08/27 00:42:41;;;;;;;18.17;12.28;;;;;;;19.60;70.16;100349.67;1814918;77;25875;-80
2022/08/27 00:45:09;;;;;;;12.50;10.88;;;;;;;19.59;70.28;100347.22;1839424;77;25827;-80
2022/08/27 00:47:41;;;;;;;16.95;12.33;;;;;;;19.57;70.33;100360.20;1827372;77;26506;-80
2022/08/27 00:50:16;;;;;;;19.17;12.53;;;;;;;19.54;70.32;100351.21;1833162;77;27531;-80
2022/08/27 00:52:53;;;;;;;16.52;12.23;;;;;;;19.51;70.43;100355.78;1824996;77;25770;-81
2022/08/27 00:55:25;;;;;;;16.05;12.43;;;;;;;19.47;70.46;100360.07;1795573;79;25745;-80
2022/08/27 00:58:16;;;;;;;17.05;12.85;;;;;;;19.47;70.57;100357.36;1775491;79;25834;-80
2022/08/27 01:00:45;;;;;;;15.83;11.85;;;;;;;19.45;70.58;100360.33;1818874;77;26006;-80
2022/08/27 01:03:13;;;;;;;21.30;12.85;;;;;;;19.43;70.72;100362.48;1837025;76;27444;-80
2022/08/27 01:05:42;;;;;;;22.32;12.58;;;;;;;19.41;70.83;100365.98;1818311;77;25731;-80
2022/08/27 01:08:20;;;;;;;25.05;13.53;;;;;;;19.39;70.93;100360.51;1831013;77;25841;-80
2022/08/27 01:10:47;;;;;;;18.20;12.03;;;;;;;19.38;71.04;100359.67;1817727;77;26556;-79
2022/08/27 01:13:19;;;;;;;15.75;11.88;;;;;;;19.38;71.02;100353.41;1824464;77;25297;-80
2022/08/27 01:15:45;;;;;;;16.90;12.00;;;;;;;19.35;71.06;100356.13;1822906;77;28288;-81
2022/08/27 01:18:13;;;;;;;17.92;12.50;;;;;;;19.32;71.11;100354.39;1789360;77;25859;-80
2022/08/27 01:20:48;;;;;;;16.48;12.20;;;;;;;19.30;71.28;100353.29;1832589;77;26030;-80
2022/08/27 01:23:43;;;;;;;19.12;11.80;;;;;;;19.27;71.30;100348.34;1838949;77;25907;-81
2022/08/27 01:26:14;;;;;;;16.80;13.15;;;;;;;19.24;71.45;100353.77;1827295;77;25806;-80
2022/08/27 01:28:41;;;;;;;19.62;13.70;;;;;;;19.22;71.61;100355.87;1827567;77;27439;-80
2022/08/27 01:31:10;;;;;;;19.02;12.18;;;;;;;19.21;71.64;100352.89;1801164;77;25885;-80
2022/08/27 01:33:38;;;;;;;17.80;12.18;;;;;;;19.21;71.68;100349.34;1838497;77;26501;-81
2022/08/27 01:36:06;;;;;;;17.67;11.80;;;;;;;19.19;71.64;100344.70;1828650;77;25466;-81
2022/08/27 01:38:33;;;;;;;17.15;12.03;;;;;;;19.18;71.75;100341.72;1833972;77;25263;-81
2022/08/27 01:41:00;;;;;;;15.65;12.53;;;;;;;19.16;71.83;100337.07;1835503;77;28293;-81
2022/08/27 01:43:29;;;;;;;16.37;13.45;;;;;;;19.13;71.89;100341.10;1831467;77;25876;-80
2022/08/27 01:45:56;;;;;;;14.80;12.73;;;;;;;19.09;72.02;100339.95;1845408;77;25777;-81
2022/08/27 01:48:22;;;;;;;19.52;12.00;;;;;;;19.07;72.07;100342.63;1831700;77;25802;-81
2022/08/27 01:50:49;;;;;;;15.15;11.90;;;;;;;19.03;72.28;100336.84;1838391;77;26042;-80
2022/08/27 01:53:22;;;;;;;18.77;11.97;;;;;;;19.03;72.34;100340.92;1832845;77;27594;-81
2022/08/27 01:55:51;;;;;;;17.00;11.83;;;;;;;19.04;72.49;100337.67;1824056;77;25718;-80
2022/08/27 01:58:22;;;;;;;13.78;11.48;;;;;;;19.05;72.58;100337.42;1835277;77;25309;-80
2022/08/27 02:00:52;;;;;;;15.13;12.40;;;;;;;19.05;72.55;100339.34;1823556;77;25782;-80
2022/08/27 02:03:18;;;;;;;14.78;12.20;;;;;;;19.03;72.59;100338.20;1836823;77;25983;-81
2022/08/27 02:05:47;;;;;;;20.35;12.37;;;;;;;19.02;72.61;100349.32;1829610;77;27469;-81
2022/08/27 02:08:16;;;;;;;14.53;11.65;;;;;;;19.00;72.69;100338.72;1829629;77;25926;-81
2022/08/27 02:10:44;;;;;;;19.20;12.88;;;;;;;19.00;72.70;100345.51;1831875;77;25744;-81
2022/08/27 02:13:12;;;;;;;16.50;12.98;;;;;;;18.98;72.74;100338.15;1833751;77;26130;-81
2022/08/27 02:15:41;;;;;;;18.27;12.45;;;;;;;18.97;72.93;100338.37;1834516;77;25995;-80
2022/08/27 02:18:09;;;;;;;19.42;13.20;;;;;;;18.95;73.01;100334.56;1840464;77;27894;-81
2022/08/27 02:20:36;;;;;;;18.98;13.38;;;;;;;18.94;73.06;100337.53;1829208;77;25972;-81
2022/08/27 02:23:06;;;;;;;19.12;13.13;;;;;;;18.90;73.13;100335.02;1829374;77;25254;-81
2022/08/27 02:25:32;;;;;;;18.65;13.32;;;;;;;18.87;73.43;100340.94;1829222;77;25784;-81
2022/08/27 02:28:00;;;;;;;17.07;12.63;;;;;;;18.82;73.39;100344.95;1833095;77;26089;-81
2022/08/27 02:30:31;;;;;;;20.12;11.63;;;;;;;18.79;73.34;100340.00;1803189;77;26488;-80
2022/08/27 02:32:59;;;;;;;16.62;12.68;;;;;;;18.76;73.40;100342.66;1809110;77;25803;-81
2022/08/27 02:35:26;;;;;;;16.23;13.03;;;;;;;18.75;73.63;100338.84;1812883;77;25293;-81
2022/08/27 02:37:53;;;;;;;21.90;13.58;;;;;;;18.73;73.84;100342.34;1798419;77;25762;-81
2022/08/27 02:40:22;;;;;;;15.93;12.00;;;;;;;18.64;74.01;100340.56;1805423;77;25705;-81
2022/08/27 02:42:49;;;;;;;15.63;12.40;;;;;;;18.54;74.18;100346.35;1822237;77;27602;-81
2022/08/27 02:45:16;;;;;;;15.65;12.80;;;;;;;18.48;74.50;100348.70;1764559;79;25686;-81
2022/08/27 02:47:43;;;;;;;15.35;11.43;;;;;;;18.45;74.69;100341.86;1799732;77;25806;-81
2022/08/27 02:50:12;;;;;;;17.57;13.03;;;;;;;18.44;74.70;100343.75;1796106;78;25504;-80
2022/08/27 02:52:39;;;;;;;17.77;12.68;;;;;;;18.44;74.78;100349.70;1801182;77;26086;-80
2022/08/27 02:55:07;;;;;;;20.57;12.40;;;;;;;18.44;74.93;100344.27;1819287;77;27448;-80
2022/08/27 02:57:34;;;;;;;20.05;12.73;;;;;;;18.42;75.10;100347.20;1813856;77;25887;-81
2022/08/27 03:00:00;;;;;;;20.65;12.18;;;;;;;18.41;75.18;100339.32;1808532;77;25709;-80
2022/08/27 03:02:27;;;;;;;15.65;12.50;;;;;;;18.41;75.32;100341.48;1821188;77;26513;-81
2022/08/27 03:04:53;;;;;;;16.20;13.05;;;;;;;18.41;75.41;100340.12;1816599;77;26398;-81
2022/08/27 03:07:23;;;;;;;15.08;12.05;;;;;;;18.42;75.31;100345.02;1831466;77;27459;-81
2022/08/27 03:09:48;;;;;;;17.80;12.37;;;;;;;18.44;75.30;100342.39;1829387;77;25380;-81
2022/08/27 03:12:14;;;;;;;18.98;13.03;;;;;;;18.45;75.47;100339.15;1841015;77;25764;-81
2022/08/27 03:14:42;;;;;;;15.78;13.18;;;;;;;18.43;75.62;100338.54;1841395;77;25777;-81
2022/08/27 03:19:54;;;;;;;17.07;12.47;;;;;;;18.42;75.79;100335.52;1831095;77;27426;-81
2022/08/27 03:22:20;;;;;;;19.77;13.32;;;;;;;18.41;75.93;100336.05;1837680;77;25753;-81
2022/08/27 03:24:49;;;;;;;18.67;12.88;;;;;;;18.40;76.02;100336.30;1838840;77;25811;-80
2022/08/27 03:27:15;;;;;;;18.40;12.90;;;;;;;18.39;76.10;100332.77;1837655;77;25890;-81
2022/08/27 03:29:43;;;;;;;18.40;13.00;;;;;;;18.39;76.16;100336.83;1836631;77;25308;-80
2022/08/27 03:32:09;;;;;;;17.70;13.15;;;;;;;18.38;76.25;100345.22;1827324;77;27549;-81
2022/08/27 03:34:36;;;;;;;20.75;13.15;;;;;;;18.31;76.29;100348.60;1827408;77;25745;-80
2022/08/27 03:37:02;;;;;;;18.30;13.15;;;;;;;18.26;76.53;100341.19;1815689;77;25846;-81
2022/08/27 03:39:28;;;;;;;17.95;12.88;;;;;;;18.25;76.64;100334.67;1811832;78;25455;-81
2022/08/27 03:41:55;;;;;;;19.57;14.38;;;;;;;18.26;76.69;100345.27;1810668;77;25946;-81
2022/08/27 03:44:23;;;;;;;19.02;13.10;;;;;;;18.24;76.78;100341.17;1788667;78;27438;-81
2022/08/27 03:46:51;;;;;;;18.00;12.45;;;;;;;18.25;76.93;100344.16;1826529;77;26077;-81
2022/08/27 03:49:20;;;;;;;19.95;12.73;;;;;;;18.22;77.02;100337.33;1814476;77;25891;-81
2022/08/27 03:51:49;;;;;;;18.75;13.32;;;;;;;18.23;77.09;100341.70;1824335;77;25460;-80
2022/08/27 03:54:16;;;;;;;20.50;13.55;;;;;;;18.22;77.24;100337.33;1831685;77;25835;-81
2022/08/27 03:56:42;;;;;;;16.65;13.03;;;;;;;18.21;77.21;100343.00;1838759;77;27415;-80
2022/08/27 03:59:09;;;;;;;16.82;12.82;;;;;;;18.20;77.30;100346.23;1841399;77;25864;-80
2022/08/27 04:01:35;;;;;;;16.73;12.95;;;;;;;18.21;77.38;100353.84;1845129;77;25688;-81
2022/08/27 04:04:03;;;;;;;18.60;12.90;;;;;;;18.23;77.44;100352.55;1850016;77;25862;-81
2022/08/27 04:06:29;;;;;;;21.27;13.30;;;;;;;18.24;77.53;100350.66;1835305;77;25901;-80
2022/08/27 04:08:56;;;;;;;16.87;12.70;;;;;;;18.20;77.64;100347.59;1835271;77;27994;-80
2022/08/27 04:11:22;;;;;;;20.05;13.15;;;;;;;18.18;77.69;100342.12;1832011;77;25819;-80
2022/08/27 04:13:49;;;;;;;20.32;13.28;;;;;;;18.18;77.93;100344.83;1842369;77;25826;-80
2022/08/27 04:16:15;;;;;;;16.77;12.23;;;;;;;18.15;78.11;100346.16;1834576;77;25467;-80
2022/08/27 04:18:41;;;;;;;22.90;13.45;;;;;;;18.14;78.24;100347.21;1835121;77;25518;-81
2022/08/27 04:21:11;;;;;;;18.80;13.22;;;;;;;18.12;78.30;100343.92;1841145;77;27441;-80
2022/08/27 04:23:40;;;;;;;20.40;12.70;;;;;;;18.11;78.49;100343.62;1837912;77;25316;-81
2022/08/27 04:26:08;;;;;;;15.72;13.35;;;;;;;18.10;78.63;100341.16;1847388;77;25801;-81
2022/08/27 04:28:35;;;;;;;17.12;12.78;;;;;;;18.08;78.74;100335.16;1831443;77;26500;-81
2022/08/27 04:31:02;;;;;;;19.77;13.05;;;;;;;18.07;78.89;100334.33;1813693;77;25619;-80
2022/08/27 04:33:31;;;;;;;19.60;13.25;;;;;;;18.04;79.04;100332.12;1821585;77;27426;-81
2022/08/27 04:36:00;;;;;;;18.80;14.00;;;;;;;18.03;79.35;100336.40;1824709;77;25970;-81
2022/08/27 04:38:27;;;;;;;25.20;14.28;;;;;;;18.04;79.55;100337.53;1826183;77;25273;-81
2022/08/27 04:43:38;;;;;;;21.37;13.10;;;;;;;18.08;79.95;100331.92;1809502;77;25324;-81
2022/08/27 04:46:05;;;;;;;14.15;12.37;;;;;;;18.11;80.18;100339.55;1811737;77;27469;-81
2022/08/27 04:48:32;;;;;;;18.80;14.03;;;;;;;18.14;80.24;100337.72;1839200;77;25881;-81
2022/08/27 04:50:58;;;;;;;16.50;12.65;;;;;;;18.17;80.48;100341.84;1834931;77;25695;-80
2022/08/27 04:53:24;;;;;;;17.32;13.25;;;;;;;18.20;80.62;100334.56;1853634;77;26302;-81
2022/08/27 04:55:55;;;;;;;17.27;12.90;;;;;;;18.22;80.78;100332.46;1846795;77;26469;-81
2022/08/27 04:58:23;;;;;;;18.30;11.78;;;;;;;18.24;80.93;100332.48;1851573;77;27441;-81
2022/08/27 05:00:54;;;;;;;19.77;13.40;;;;;;;18.30;81.07;100332.89;1831823;77;25747;-80
2022/08/27 05:03:23;;;;;;;;;;;;;;;18.34;81.28;100332.69;1845896;77;25857;-80
2022/08/27 05:05:50;;;;;;;17.55;12.82;;;;;;;18.39;81.48;100328.70;1828383;77;25822;-80
2022/08/27 05:08:17;;;;;;;19.20;13.03;;;;;;;18.42;81.49;100335.00;1788208;77;25806;-79
2022/08/27 05:10:49;;;;;;;20.35;13.30;;;;;;;18.48;81.58;100328.63;1836560;77;27438;-80
2022/08/27 05:13:18;;;;;;;17.87;12.93;;;;;;;18.55;81.74;100335.78;1828127;77;25680;-80
2022/08/27 05:15:46;;;;;;;17.52;12.98;;;;;;;18.60;81.91;100339.94;1852072;77;25768;-81
2022/08/27 05:18:13;;;;;;;19.35;12.43;;;;;;;18.65;82.02;100336.77;1840857;77;25721;-81
2022/08/27 05:20:47;;;;;;;22.05;12.33;;;;;;;18.72;82.09;100336.61;1843102;77;25750;-80
2022/08/27 05:23:17;;;;;;;18.05;13.98;;;;;;;18.76;82.31;100329.09;1835252;77;27493;-81
2022/08/27 05:25:46;;;;;;;18.82;13.03;;;;;;;18.83;82.42;100330.29;1846228;77;26362;-80
2022/08/27 05:28:15;;;;;;;23.12;15.83;;;;;;;18.87;82.42;100327.36;1829535;77;25293;-80
2022/08/27 05:30:45;;;;;;;19.65;14.23;;;;;;;18.94;82.54;100328.86;1845330;77;26235;-80
2022/08/27 05:33:14;;;;;;;20.17;13.08;;;;;;;19.00;82.61;100327.86;1838265;76;32973;-80
2022/08/27 05:35:45;;;;;;;18.20;12.78;;;;;;;19.07;82.82;100323.09;1852692;77;28379;-80
2022/08/27 05:38:13;;;;;;;16.82;13.13;;;;;;;19.17;82.87;100331.38;1835810;77;25665;-81
2022/08/27 05:40:40;;;;;;;15.35;13.45;;;;;;;19.29;82.89;100328.55;1839918;77;26523;-80
2022/08/27 05:43:07;;;;;;;21.65;13.30;;;;;;;19.39;82.76;100329.27;1849400;77;25628;-80
2022/08/27 05:45:46;;;;;;;21.30;12.53;;;;;;;19.46;82.65;100334.79;1843391;77;25912;-80
2022/08/27 05:48:15;;;;;;;21.73;13.40;;;;;;;19.54;82.73;100337.10;1835166;77;27457;-81
2022/08/27 05:50:43;;;;;;;14.55;11.75;;;;;;;19.62;82.51;100337.19;1826517;77;25511;-81
2022/08/27 05:53:12;;;;;;;16.65;13.38;;;;;;;19.71;82.49;100341.12;1800435;77;25538;-81
2022/08/27 05:55:43;;;;;;;19.55;13.45;;;;;;;19.79;82.61;100341.50;1848501;77;26227;-81
2022/08/27 06:01:03;;;;;;;19.17;13.18;;;;;;;19.88;82.44;100344.06;1828162;77;25973;-81
2022/08/27 06:03:25;;;;;;;19.40;13.40;;;;;;;20.07;82.18;100338.27;1845260;77;25815;-80
2022/08/27 06:06:05;;;;;;;19.02;12.70;;;;;;;20.17;82.14;100343.81;1842433;77;25691;-81
2022/08/27 06:08:32;;;;;;;16.12;13.98;;;;;;;20.27;81.98;100342.63;1818189;77;25463;-81
2022/08/27 06:11:02;;;;;;;20.35;14.53;;;;;;;20.36;82.04;100344.61;1821687;77;25728;-81
2022/08/27 06:13:30;;;;;;;20.40;13.50;;;;;;;20.45;81.86;100341.72;1851736;77;27443;-81
2022/08/27 06:16:06;;;;;;;24.90;13.45;;;;;;;20.54;81.69;100344.26;1831416;77;25940;-81
2022/08/27 06:18:36;;;;;;;16.73;13.28;;;;;;;20.62;81.80;100341.59;1836056;77;25627;-81
2022/08/27 06:21:02;;;;;;;22.73;14.30;;;;;;;20.69;81.54;100343.56;1840812;77;26073;-81
2022/08/27 06:23:29;;;;;;;19.67;12.82;;;;;;;20.76;81.45;100340.89;1839024;77;25857;-81
2022/08/27 06:25:56;;;;;;;21.27;14.33;;;;;;;20.83;81.27;100336.59;1838704;77;27423;-81
2022/08/27 06:28:28;;;;;;;19.17;15.08;;;;;;;20.92;81.21;100337.77;1834933;77;25759;-81
2022/08/27 06:31:02;;;;;;;;;;;;;;;21.00;81.06;100331.83;1847728;77;25767;-81
2022/08/27 06:33:29;;;;;;;22.73;12.80;;;;;;;21.08;81.18;100341.47;1774701;77;26026;-81
2022/08/27 06:36:05;;;;;;;16.62;12.98;;;;;;;21.15;81.25;100340.70;1805839;78;25271;-81
2022/08/27 06:38:33;;;;;;;16.15;13.03;;;;;;;21.24;80.91;100343.20;1820587;78;27441;-81
2022/08/27 06:40:59;;;;;;;16.95;12.33;;;;;;;21.34;81.09;100339.99;1796912;79;25888;-81
2022/08/27 06:43:26;;;;;;;14.90;13.10;;;;;;;21.45;80.64;100347.15;1796588;79;25726;-81
2022/08/27 06:45:54;;;;;;;18.37;12.95;;;;;;;21.53;80.37;100339.83;1841853;77;25738;-81
2022/08/27 06:48:20;;;;;;;20.35;14.70;;;;;;;21.62;80.42;100337.42;1857806;77;25703;-81
2022/08/27 06:50:46;;;;;;;18.32;12.90;;;;;;;21.71;80.79;100342.65;1839403;77;27477;-80
2022/08/27 06:53:13;;;;;;;22.40;15.32;;;;;;;21.80;80.29;100334.78;1854669;77;25780;-81
2022/08/27 06:55:43;;;;;;;21.52;14.23;;;;;;;21.90;80.40;100336.20;1843761;77;25814;-81
2022/08/27 06:58:11;;;;;;;21.07;13.48;;;;;;;21.98;80.47;100334.34;1794650;77;25618;-81
2022/08/27 07:00:38;;;;;;;21.10;12.80;;;;;;;22.05;79.68;100330.27;1838135;77;25956;-81
2022/08/27 07:03:06;;;;;;;16.90;11.97;;;;;;;22.12;79.90;100336.84;1840133;77;27634;-81
2022/08/27 07:05:35;;;;;;;17.57;12.85;;;;;;;22.19;79.34;100329.22;1855946;77;25893;-81
2022/08/27 07:08:04;;;;;;;15.75;13.35;;;;;;;22.27;79.83;100330.05;1840485;77;25777;-81
2022/08/27 07:10:31;;;;;;;19.23;13.45;;;;;;;22.36;80.04;100328.44;1845243;77;25496;-80
2022/08/27 07:12:58;;;;;;;15.60;13.13;;;;;;;22.43;79.93;100319.99;1835228;77;25503;-81
2022/08/27 07:15:24;;;;;;;19.50;13.03;;;;;;;22.50;79.94;100321.35;1837714;77;27418;-80
2022/08/27 07:17:51;;;;;;;14.63;11.78;;;;;;;22.59;79.31;100319.77;1837926;77;25727;-81
2022/08/27 07:20:19;;;;;;;19.77;12.98;;;;;;;22.66;78.75;100316.22;1825286;77;25751;-80
2022/08/27 07:22:47;;;;;;;17.05;12.37;;;;;;;22.75;78.60;100316.50;1835975;77;25623;-79
2022/08/27 07:25:19;;;;;;;21.05;13.80;;;;;;;22.84;78.48;100318.93;1829692;77;25770;-81
2022/08/27 07:27:47;;;;;;;14.80;11.03;;;;;;;22.91;78.29;100320.84;1837665;77;27425;-80
2022/08/27 07:30:15;;;;;;;18.12;12.55;;;;;;;22.99;77.72;100329.31;1848016;76;25619;-80
2022/08/27 07:32:44;;;;;;;19.60;11.90;;;;;;;23.09;78.15;100331.23;1827099;77;25448;-80
2022/08/27 07:35:11;;;;;;;17.75;11.88;;;;;;;23.18;77.37;100335.59;1840835;77;25454;-80
2022/08/27 07:37:40;;;;;;;14.30;11.45;;;;;;;23.26;77.17;100322.72;1830996;77;25714;-80
2022/08/27 07:40:14;;;;;;;14.15;11.25;;;;;;;23.35;76.89;100328.73;1829311;77;27672;-80
2022/08/27 07:45:28;;;;;;;17.60;12.18;;;;;;;23.47;75.82;100321.06;1841426;77;25467;-83
2022/08/27 07:47:55;;;;;;;16.60;11.15;;;;;;;23.56;75.43;100319.40;1821600;77;25830;-82
2022/08/27 07:50:22;;;;;;;14.95;11.43;;;;;;;23.66;75.38;100318.53;1825843;77;26389;-82
2022/08/27 07:52:50;;;;;;;21.02;13.13;;;;;;;23.75;74.72;100318.23;1822166;77;27624;-81
2022/08/27 07:55:17;;;;;;;13.53;10.95;;;;;;;23.83;74.78;100325.02;1829248;77;25800;-81
2022/08/27 07:57:44;;;;;;;15.83;11.65;;;;;;;23.91;74.87;100324.45;1826172;77;25714;-81
2022/08/27 08:00:12;;;;;;;17.92;11.45;;;;;;;24.00;74.78;100323.57;1808720;77;25622;-81
2022/08/27 08:02:43;;;;;;;17.60;10.45;;;;;;;24.11;74.49;100326.56;1800660;79;25747;-80
2022/08/27 08:05:11;;;;;;;15.63;10.55;;;;;;;24.19;73.68;100323.77;1800620;77;28266;-81
2022/08/27 08:07:38;;;;;;;15.10;11.28;;;;;;;24.26;72.89;100322.37;1822274;77;26052;-81
2022/08/27 08:10:08;;;;;;;12.55;10.78;;;;;;;24.35;72.64;100323.95;1821694;77;25849;-81
2022/08/27 08:12:39;;;;;;;14.10;9.57;;;;;;;24.44;72.41;100326.36;1822765;77;26341;-81
2022/08/27 08:15:09;;;;;;;13.10;10.20;;;;;;;24.51;72.05;100320.82;1802446;78;25803;-81
2022/08/27 08:17:37;;;;;;;15.18;9.63;;;;;;;24.56;71.30;100320.52;1825204;77;27968;-82
2022/08/27 08:20:07;;;;;;;16.52;9.75;;;;;;;24.63;71.43;100319.11;1837134;77;26059;-81
2022/08/27 08:22:34;;;;;;;13.85;9.88;;;;;;;24.72;70.58;100317.94;1823775;77;25794;-81
2022/08/27 08:25:00;;;;;;;15.25;9.95;;;;;;;24.80;69.90;100317.34;1822841;77;26446;-81
2022/08/27 08:29:47;;;;;;;11.75;9.65;;;;;;;24.99;69.56;100313.62;1863931;76;25645;-80
2022/08/27 08:32:14;;;;;;;12.78;8.90;;;;;;;25.05;69.78;100308.89;1820452;78;25722;-81
2022/08/27 08:34:41;;;;;;;14.43;9.93;;;;;;;25.13;69.10;100316.48;1816917;78;27459;-82
2022/08/27 08:37:07;;;;;;;9.28;8.38;;;;;;;25.23;69.16;100310.92;1820076;78;25585;-81
2022/08/27 08:39:35;;;;;;;10.45;8.80;;;;;;;25.32;69.03;100313.27;1772486;80;25703;-81
2022/08/27 08:42:06;;;;;;;11.95;8.53;;;;;;;25.40;69.06;100311.83;1763899;80;25849;-81
2022/08/27 08:44:47;;;;;;;10.75;9.10;;;;;;;25.44;68.31;100317.84;1768381;80;25850;-81
2022/08/27 08:47:31;;;;;;;9.95;8.48;;;;;;;25.52;68.69;100316.38;1769793;80;28310;-81
2022/08/27 08:50:07;;;;;;;10.28;9.28;;;;;;;25.59;67.56;100316.84;1762476;80;25799;-81
2022/08/27 08:53:00;;;;;;;15.78;8.80;;;;;;;25.62;68.16;100312.16;1759641;79;26021;-82
2022/08/27 08:55:57;;;;;;;10.45;8.58;;;;;;;25.64;67.25;100316.22;1768316;80;25998;-82
2022/08/27 08:58:38;;;;;;;13.43;8.33;;;;;;;25.69;67.73;100312.60;1769298;79;25819;-83
2022/08/27 09:01:08;;;;;;;15.43;8.20;;;;;;;25.74;67.64;100307.06;1757561;80;27516;-81
2022/08/27 09:03:40;;;;;;;13.28;7.45;;;;;;;25.81;66.37;100306.95;1724372;82;25876;-80
2022/08/27 09:06:30;;;;;;;12.53;7.35;;;;;;;25.88;65.74;100305.22;1760936;80;25886;-81
2022/08/27 09:09:05;;;;;;;16.13;7.70;;;;;;;25.96;64.57;100306.75;1765190;80;25901;-81
2022/08/27 09:11:43;;;;;;;10.48;7.30;;;;;;;26.05;63.34;100305.54;1759137;80;25920;-80
2022/08/27 09:14:30;;;;;;;11.97;8.10;;;;;;;26.13;64.08;100302.19;1762404;80;28456;-81
2022/08/27 09:17:00;;;;;;;13.05;7.58;;;;;;;26.22;64.04;100307.83;1760304;80;25758;-81
2022/08/27 09:19:26;;;;;;;16.90;7.35;;;;;;;26.32;63.47;100307.12;1765284;80;25851;-81
2022/08/27 09:22:24;;;;;;;11.22;7.12;;;;;;;26.40;63.71;100308.36;1776392;80;25301;-81
2022/08/27 09:25:22;;;;;;;10.10;6.90;;;;;;;26.49;63.47;100307.41;1752005;80;25764;-82
2022/08/27 09:27:50;;;;;;;13.55;7.22;;;;;;;26.56;62.44;100308.41;1763406;79;28263;-83
2022/08/27 09:30:25;;;;;;;11.60;6.83;;;;;;;26.59;61.70;100306.41;1787866;78;25977;-82
2022/08/27 09:32:59;;;;;;;11.88;6.78;;;;;;;26.62;61.17;100302.50;1756567;81;25733;-82
2022/08/27 09:35:33;;;;;;;11.68;7.08;;;;;;;26.65;61.41;100309.33;1769855;80;25873;-83
2022/08/27 09:38:01;;;;;;;14.55;7.40;;;;;;;26.61;61.33;100302.25;1761166;80;25568;-82
2022/08/27 09:40:38;;;;;;;14.18;7.45;;;;;;;26.58;61.21;100300.09;1785126;79;27454;-82
2022/08/27 09:43:16;;;;;;;14.90;7.67;;;;;;;26.58;61.08;100295.97;1755684;79;25901;-83
2022/08/27 09:45:56;;;;;;;14.33;7.33;;;;;;;26.68;61.46;100301.87;1782900;79;25572;-82
2022/08/27 09:48:27;;;;;;;11.93;7.22;;;;;;;26.76;60.76;100299.84;1766561;80;25697;-82
2022/08/27 09:50:58;;;;;;;11.73;7.90;;;;;;;26.85;60.23;100298.59;1786491;79;25766;-83
2022/08/27 09:53:44;;;;;;;13.00;7.65;;;;;;;26.95;60.33;100299.23;1788480;80;27068;-83
2022/08/27 09:56:34;;;;;;;10.05;7.85;;;;;;;27.06;60.81;100300.69;1790163;79;25846;-82
2022/08/27 09:59:11;;;;;;;14.53;8.35;;;;;;;27.11;59.98;100293.73;1787884;80;25326;-82
2022/08/27 10:01:54;;;;;;;12.00;7.72;;;;;;;27.10;59.87;100295.38;1780178;78;26554;-82
2022/08/27 10:04:38;;;;;;;13.68;8.30;;;;;;;27.13;60.27;100288.73;1757289;81;25918;-82
2022/08/27 10:07:30;;;;;;;12.20;7.90;;;;;;;27.20;60.79;100290.51;1787160;80;28389;-82
2022/08/27 10:10:11;;;;;;;12.10;7.60;;;;;;;27.28;61.07;100291.76;1742928;81;25914;-83
2022/08/27 10:13:03;;;;;;;15.35;8.35;;;;;;;27.34;60.62;100285.03;1790074;80;25877;-82
2022/08/27 10:15:56;;;;;;;11.83;8.00;;;;;;;27.40;61.09;100287.41;1789589;78;25330;-82
2022/08/27 10:18:40;;;;;;;11.00;8.03;;;;;;;27.49;61.20;100284.77;1788034;79;25552;-82
2022/08/27 10:21:30;;;;;;;13.30;7.95;;;;;;;27.58;61.52;100281.56;1796283;78;27690;-82
2022/08/27 10:24:25;;;;;;;10.80;7.85;;;;;;;27.67;60.88;100284.41;1776954;78;25877;-82
2022/08/27 10:27:09;;;;;;;14.03;7.53;;;;;;;27.77;60.56;100284.19;1780825;78;26447;-82
2022/08/27 10:29:53;;;;;;;15.08;6.92;;;;;;;27.84;59.68;100281.28;1773216;79;25367;-82
2022/08/27 10:32:43;;;;;;;17.73;6.92;;;;;;;27.93;57.98;100286.88;1761196;79;25315;-82
2022/08/27 10:35:18;;;;;;;14.55;6.80;;;;;;;27.99;56.60;100280.95;1756357;81;27479;-82
2022/08/27 10:38:02;;;;;;;11.08;7.58;;;;;;;28.06;56.77;100275.84;1758647;80;25822;-82
2022/08/27 10:40:42;;;;;;;10.28;7.53;;;;;;;28.13;56.62;100277.63;1754487;80;25811;-82
2022/08/27 10:43:40;;;;;;;12.40;7.47;;;;;;;28.20;55.49;100275.81;1760777;79;30057;-82
2022/08/27 10:46:28;;;;;;;14.63;7.50;;;;;;;28.27;54.77;100272.08;1753616;80;25945;-82
2022/08/27 10:49:15;;;;;;;11.05;7.25;;;;;;;28.34;53.69;100270.24;1755858;80;27474;-83
2022/08/27 10:51:53;;;;;;;9.93;7.25;;;;;;;28.37;53.52;100270.45;1758150;81;25264;-83
2022/08/27 10:54:39;;;;;;;15.58;7.53;;;;;;;28.43;53.07;100271.13;1758229;79;25836;-82
2022/08/27 10:57:33;;;;;;;12.98;7.97;;;;;;;28.48;53.27;100269.64;1760187;79;25815;-83
2022/08/27 11:00:12;;;;;;;10.80;7.28;;;;;;;28.53;51.67;100275.04;1755525;79;25981;-81
2022/08/27 11:02:55;;;;;;;14.23;7.65;;;;;;;28.56;52.22;100273.84;1750967;81;28394;-81
2022/08/27 11:05:30;;;;;;;14.28;7.58;;;;;;;28.60;52.36;100273.48;1752043;79;25855;-81
2022/08/27 11:08:14;;;;;;;9.10;7.55;;;;;;;28.68;52.53;100265.84;1760373;79;25818;-82
2022/08/27 11:10:45;;;;;;;13.58;8.13;;;;;;;28.76;52.08;100267.03;1726595;79;26085;-81
2022/08/27 11:13:20;;;;;;;13.43;8.73;;;;;;;28.79;51.30;100268.59;1757445;79;25783;-82
2022/08/27 11:15:50;;;;;;;13.13;8.00;;;;;;;28.81;51.13;100259.44;1748231;79;27444;-81
2022/08/27 11:18:39;;;;;;;13.35;7.85;;;;;;;28.86;51.50;100263.45;1757720;79;26618;-82
2022/08/27 11:21:33;;;;;;;16.97;7.85;;;;;;;28.93;51.54;100263.00;1759408;79;25343;-81
2022/08/27 11:24:41;;;;;;;13.83;8.05;;;;;;;28.99;51.64;100264.48;1757021;81;25797;-81
2022/08/27 11:27:09;;;;;;;13.48;8.73;;;;;;;29.06;52.84;100268.17;1754883;79;25960;-82
2022/08/27 11:29:49;;;;;;;14.47;8.90;;;;;;;29.11;51.38;100264.70;1756502;81;27447;-82
2022/08/27 11:32:50;;;;;;;17.32;8.65;;;;;;;29.15;50.99;100264.31;1741815;81;26034;-81
2022/08/27 11:35:26;;;;;;;14.47;8.95;;;;;;;29.21;50.62;100258.14;1753204;79;25346;-82
2022/08/27 11:38:20;;;;;;;13.72;9.15;;;;;;;29.29;50.23;100254.59;1751812;79;26430;-82
2022/08/27 11:41:06;;;;;;;14.70;8.68;;;;;;;29.37;50.00;100259.32;1753820;79;25819;-80
2022/08/27 11:43:35;;;;;;;17.00;9.38;;;;;;;29.44;49.66;100260.50;1755959;81;27498;-81
2022/08/27 11:46:05;;;;;;;14.33;8.70;;;;;;;29.50;49.57;100262.53;1756890;81;25319;-81